sensor_id;sensor_type;location;lat;lon;timestamp;P1;durP1;ratioP1;P2;durP2;ratioP2
146;SDS011;45999;48.808;9.182;2022-08-19T00:01:30;13.67;;;12.37;;
146;SDS011;45999;48.808;9.182;2022-08-19T00:03:58;14.40;;;13.20;;
146;SDS011;45999;48.808;9.182;2022-08-19T00:06:27;13.70;;;12.30;;
146;SDS011;45999;48.808;9.182;2022-08-19T00:08:55;13.43;;;12.17;;
146;SDS011;45999;48.808;9.182;2022-08-19T00:11:22;14.13;;;12.83;;
146;SDS011;45999;48.808;9.182;2022-08-19T00:13:52;14.47;;;13.17;;
146;SDS011;45999;48.808;9.182;2022-08-19T00:16:19;14.90;;;13.50;;
146;SDS011;45999;48.808;9.182;2022-08-19T00:18:48;14.77;;;13.43;;
146;SDS011;45999;48.808;9.182;2022-08-19T00:21:14;13.70;;;12.33;;
146;SDS011;45999;48.808;9.182;2022-08-19T00:23:41;14.67;;;13.27;;
146;SDS011;45999;48.808;9.182;2022-08-19T00:26:09;13.60;;;12.37;;
146;SDS011;45999;48.808;9.182;2022-08-19T00:28:36;14.07;;;12.67;;
146;SDS011;45999;48.808;9.182;2022-08-19T00:31:04;13.47;;;12.33;;
146;SDS011;45999;48.808;9.182;2022-08-19T00:33:32;13.67;;;12.47;;
146;SDS011;45999;48.808;9.182;2022-08-19T00:35:59;12.30;;;11.20;;
146;SDS011;45999;48.808;9.182;2022-08-19T00:38:34;14.20;;;12.57;;
146;SDS011;45999;48.808;9.182;2022-08-19T00:41:01;14.87;;;13.57;;
146;SDS011;45999;48.808;9.182;2022-08-19T00:43:28;14.47;;;13.07;;
146;SDS011;45999;48.808;9.182;2022-08-19T00:45:54;13.27;;;12.17;;
146;SDS011;45999;48.808;9.182;2022-08-19T00:48:21;13.83;;;12.63;;
146;SDS011;45999;48.808;9.182;2022-08-19T00:50:49;13.50;;;12.30;;
146;SDS011;45999;48.808;9.182;2022-08-19T00:53:19;14.23;;;12.93;;
146;SDS011;45999;48.808;9.182;2022-08-19T00:55:48;13.90;;;12.60;;
146;SDS011;45999;48.808;9.182;2022-08-19T00:58:18;14.97;;;13.40;;
146;SDS011;45999;48.808;9.182;2022-08-19T01:00:46;15.23;;;13.73;;
146;SDS011;45999;48.808;9.182;2022-08-19T01:03:16;15.33;;;13.93;;
146;SDS011;45999;48.808;9.182;2022-08-19T01:05:46;13.73;;;12.50;;
146;SDS011;45999;48.808;9.182;2022-08-19T01:08:15;14.63;;;13.30;;
146;SDS011;45999;48.808;9.182;2022-08-19T01:10:45;14.43;;;13.03;;
146;SDS011;45999;48.808;9.182;2022-08-19T01:13:19;13.80;;;12.60;;
146;SDS011;45999;48.808;9.182;2022-08-19T01:15:55;13.73;;;12.53;;
146;SDS011;45999;48.808;9.182;2022-08-19T01:18:26;14.60;;;13.30;;
146;SDS011;45999;48.808;9.182;2022-08-19T01:20:56;14.27;;;12.97;;
146;SDS011;45999;48.808;9.182;2022-08-19T01:23:26;13.97;;;12.67;;
146;SDS011;45999;48.808;9.182;2022-08-19T01:26:09;14.80;;;13.50;;
146;SDS011;45999;48.808;9.182;2022-08-19T01:28:40;16.63;;;15.00;;
146;SDS011;45999;48.808;9.182;2022-08-19T01:31:12;15.03;;;13.70;;
146;SDS011;45999;48.808;9.182;2022-08-19T01:33:41;15.20;;;13.90;;
146;SDS011;45999;48.808;9.182;2022-08-19T01:36:11;15.37;;;13.83;;
146;SDS011;45999;48.808;9.182;2022-08-19T01:38:51;16.00;;;14.60;;
146;SDS011;45999;48.808;9.182;2022-08-19T01:41:18;14.70;;;13.30;;
146;SDS011;45999;48.808;9.182;2022-08-19T01:43:45;15.53;;;13.93;;
146;SDS011;45999;48.808;9.182;2022-08-19T01:46:12;16.17;;;14.57;;
146;SDS011;45999;48.808;9.182;2022-08-19T01:48:40;15.43;;;13.83;;
146;SDS011;45999;48.808;9.182;2022-08-19T01:51:08;16.13;;;14.60;;
146;SDS011;45999;48.808;9.182;2022-08-19T01:53:36;17.00;;;15.23;;
146;SDS011;45999;48.808;9.182;2022-08-19T01:56:03;16.87;;;15.17;;
146;SDS011;45999;48.808;9.182;2022-08-19T01:58:33;16.17;;;14.67;;
146;SDS011;45999;48.808;9.182;2022-08-19T02:01:03;17.60;;;15.90;;
146;SDS011;45999;48.808;9.182;2022-08-19T02:03:30;16.97;;;15.37;;
146;SDS011;45999;48.808;9.182;2022-08-19T02:05:58;17.30;;;15.50;;
146;SDS011;45999;48.808;9.182;2022-08-19T02:08:27;16.43;;;14.83;;
146;SDS011;45999;48.808;9.182;2022-08-19T02:10:54;17.90;;;16.07;;
146;SDS011;45999;48.808;9.182;2022-08-19T02:13:22;17.93;;;16.23;;
146;SDS011;45999;48.808;9.182;2022-08-19T02:15:49;19.07;;;17.37;;
146;SDS011;45999;48.808;9.182;2022-08-19T02:18:16;18.27;;;16.63;;
146;SDS011;45999;48.808;9.182;2022-08-19T02:20:43;18.07;;;16.30;;
146;SDS011;45999;48.808;9.182;2022-08-19T02:23:12;18.83;;;17.03;;
146;SDS011;45999;48.808;9.182;2022-08-19T02:25:40;18.63;;;16.93;;
146;SDS011;45999;48.808;9.182;2022-08-19T02:28:07;17.97;;;16.27;;
146;SDS011;45999;48.808;9.182;2022-08-19T02:30:34;19.40;;;17.60;;
146;SDS011;45999;48.808;9.182;2022-08-19T02:33:00;18.73;;;16.47;;
146;SDS011;45999;48.808;9.182;2022-08-19T02:35:27;19.57;;;17.67;;
146;SDS011;45999;48.808;9.182;2022-08-19T02:37:53;19.13;;;17.27;;
146;SDS011;45999;48.808;9.182;2022-08-19T02:40:37;20.03;;;18.00;;
146;SDS011;45999;48.808;9.182;2022-08-19T02:43:04;21.10;;;19.07;;
146;SDS011;45999;48.808;9.182;2022-08-19T02:45:33;19.27;;;17.27;;
146;SDS011;45999;48.808;9.182;2022-08-19T02:48:01;20.27;;;18.17;;
146;SDS011;45999;48.808;9.182;2022-08-19T02:50:29;19.70;;;17.77;;
146;SDS011;45999;48.808;9.182;2022-08-19T02:52:55;21.90;;;19.70;;
146;SDS011;45999;48.808;9.182;2022-08-19T02:55:22;20.40;;;18.40;;
146;SDS011;45999;48.808;9.182;2022-08-19T02:57:48;21.13;;;19.07;;
146;SDS011;45999;48.808;9.182;2022-08-19T03:00:15;20.60;;;18.60;;
146;SDS011;45999;48.808;9.182;2022-08-19T03:02:42;20.07;;;18.17;;
146;SDS011;45999;48.808;9.182;2022-08-19T03:05:09;20.70;;;18.70;;
146;SDS011;45999;48.808;9.182;2022-08-19T03:07:36;20.23;;;18.47;;
146;SDS011;45999;48.808;9.182;2022-08-19T03:10:03;22.13;;;20.07;;
146;SDS011;45999;48.808;9.182;2022-08-19T03:12:30;21.47;;;19.40;;
146;SDS011;45999;48.808;9.182;2022-08-19T03:14:56;21.50;;;19.43;;
146;SDS011;45999;48.808;9.182;2022-08-19T03:17:23;23.47;;;21.03;;
146;SDS011;45999;48.808;9.182;2022-08-19T03:19:49;21.07;;;19.00;;
146;SDS011;45999;48.808;9.182;2022-08-19T03:22:16;22.17;;;19.87;;
146;SDS011;45999;48.808;9.182;2022-08-19T03:24:42;21.83;;;19.63;;
146;SDS011;45999;48.808;9.182;2022-08-19T03:27:09;22.47;;;20.27;;
146;SDS011;45999;48.808;9.182;2022-08-19T03:29:36;21.33;;;19.23;;
146;SDS011;45999;48.808;9.182;2022-08-19T03:32:04;21.80;;;19.60;;
146;SDS011;45999;48.808;9.182;2022-08-19T03:34:32;22.73;;;20.47;;
146;SDS011;45999;48.808;9.182;2022-08-19T03:37:03;23.40;;;21.00;;
146;SDS011;45999;48.808;9.182;2022-08-19T03:39:32;24.23;;;22.03;;
146;SDS011;45999;48.808;9.182;2022-08-19T03:41:58;24.47;;;22.03;;
146;SDS011;45999;48.808;9.182;2022-08-19T03:44:27;23.77;;;21.27;;
146;SDS011;45999;48.808;9.182;2022-08-19T03:46:56;22.83;;;20.63;;
146;SDS011;45999;48.808;9.182;2022-08-19T03:49:25;23.50;;;21.30;;
146;SDS011;45999;48.808;9.182;2022-08-19T03:51:54;22.90;;;20.80;;
146;SDS011;45999;48.808;9.182;2022-08-19T03:54:22;23.27;;;20.77;;
146;SDS011;45999;48.808;9.182;2022-08-19T03:56:51;24.03;;;21.67;;
146;SDS011;45999;48.808;9.182;2022-08-19T03:59:27;23.23;;;21.03;;
146;SDS011;45999;48.808;9.182;2022-08-19T04:01:57;22.70;;;20.43;;
146;SDS011;45999;48.808;9.182;2022-08-19T04:04:24;24.80;;;22.47;;
146;SDS011;45999;48.808;9.182;2022-08-19T04:06:51;24.60;;;22.20;;
146;SDS011;45999;48.808;9.182;2022-08-19T04:09:19;24.40;;;22.00;;
146;SDS011;45999;48.808;9.182;2022-08-19T04:11:47;26.40;;;23.90;;
146;SDS011;45999;48.808;9.182;2022-08-19T04:14:19;24.40;;;22.00;;
146;SDS011;45999;48.808;9.182;2022-08-19T04:16:47;26.13;;;23.63;;
146;SDS011;45999;48.808;9.182;2022-08-19T04:19:15;24.50;;;22.23;;
146;SDS011;45999;48.808;9.182;2022-08-19T04:21:43;25.77;;;23.47;;
146;SDS011;45999;48.808;9.182;2022-08-19T04:24:12;24.97;;;22.47;;
146;SDS011;45999;48.808;9.182;2022-08-19T04:26:39;26.90;;;22.97;;
146;SDS011;45999;48.808;9.182;2022-08-19T04:29:07;25.73;;;23.43;;
146;SDS011;45999;48.808;9.182;2022-08-19T04:31:37;25.27;;;23.00;;
146;SDS011;45999;48.808;9.182;2022-08-19T04:34:04;24.37;;;21.97;;
146;SDS011;45999;48.808;9.182;2022-08-19T04:36:33;25.40;;;23.00;;
146;SDS011;45999;48.808;9.182;2022-08-19T04:39:15;26.70;;;24.20;;
146;SDS011;45999;48.808;9.182;2022-08-19T04:41:43;24.83;;;22.50;;
146;SDS011;45999;48.808;9.182;2022-08-19T04:44:27;25.13;;;22.53;;
146;SDS011;45999;48.808;9.182;2022-08-19T04:46:55;25.83;;;23.30;;
146;SDS011;45999;48.808;9.182;2022-08-19T04:49:22;24.60;;;22.20;;
146;SDS011;45999;48.808;9.182;2022-08-19T04:51:49;26.03;;;23.43;;
146;SDS011;45999;48.808;9.182;2022-08-19T04:54:18;27.13;;;24.53;;
146;SDS011;45999;48.808;9.182;2022-08-19T04:56:47;26.07;;;23.47;;
146;SDS011;45999;48.808;9.182;2022-08-19T04:59:17;26.37;;;23.77;;
146;SDS011;45999;48.808;9.182;2022-08-19T05:01:45;24.87;;;22.40;;
146;SDS011;45999;48.808;9.182;2022-08-19T05:04:15;25.13;;;22.77;;
146;SDS011;45999;48.808;9.182;2022-08-19T05:06:44;22.97;;;20.77;;
146;SDS011;45999;48.808;9.182;2022-08-19T05:09:12;26.30;;;23.83;;
146;SDS011;45999;48.808;9.182;2022-08-19T05:11:38;24.47;;;22.17;;
146;SDS011;45999;48.808;9.182;2022-08-19T05:14:05;24.77;;;22.27;;
146;SDS011;45999;48.808;9.182;2022-08-19T05:16:33;25.37;;;22.97;;
146;SDS011;45999;48.808;9.182;2022-08-19T05:19:00;25.53;;;23.07;;
146;SDS011;45999;48.808;9.182;2022-08-19T05:21:44;23.30;;;21.07;;
146;SDS011;45999;48.808;9.182;2022-08-19T05:24:29;24.70;;;22.07;;
146;SDS011;45999;48.808;9.182;2022-08-19T05:26:56;24.97;;;22.77;;
146;SDS011;45999;48.808;9.182;2022-08-19T05:29:24;25.10;;;22.70;;
146;SDS011;45999;48.808;9.182;2022-08-19T05:31:52;26.27;;;23.73;;
146;SDS011;45999;48.808;9.182;2022-08-19T05:34:21;25.90;;;23.30;;
146;SDS011;45999;48.808;9.182;2022-08-19T05:36:50;24.27;;;21.73;;
146;SDS011;45999;48.808;9.182;2022-08-19T05:39:22;24.83;;;22.43;;
146;SDS011;45999;48.808;9.182;2022-08-19T05:41:54;23.70;;;21.67;;
146;SDS011;45999;48.808;9.182;2022-08-19T05:44:23;27.10;;;24.50;;
146;SDS011;45999;48.808;9.182;2022-08-19T05:46:51;25.03;;;22.67;;
146;SDS011;45999;48.808;9.182;2022-08-19T05:49:19;25.50;;;23.10;;
146;SDS011;45999;48.808;9.182;2022-08-19T05:51:47;25.10;;;22.73;;
146;SDS011;45999;48.808;9.182;2022-08-19T05:54:15;23.37;;;21.23;;
146;SDS011;45999;48.808;9.182;2022-08-19T05:56:41;26.37;;;23.53;;
146;SDS011;45999;48.808;9.182;2022-08-19T05:59:09;24.20;;;21.97;;
146;SDS011;45999;48.808;9.182;2022-08-19T06:01:37;25.00;;;22.70;;
146;SDS011;45999;48.808;9.182;2022-08-19T06:04:05;26.40;;;23.83;;
146;SDS011;45999;48.808;9.182;2022-08-19T06:06:32;26.50;;;23.90;;
146;SDS011;45999;48.808;9.182;2022-08-19T06:09:04;23.83;;;21.60;;
146;SDS011;45999;48.808;9.182;2022-08-19T06:11:43;24.80;;;22.50;;
146;SDS011;45999;48.808;9.182;2022-08-19T06:14:19;25.80;;;23.33;;
146;SDS011;45999;48.808;9.182;2022-08-19T06:16:47;24.60;;;22.30;;
146;SDS011;45999;48.808;9.182;2022-08-19T06:19:17;25.17;;;22.67;;
146;SDS011;45999;48.808;9.182;2022-08-19T06:21:46;24.73;;;22.33;;
146;SDS011;45999;48.808;9.182;2022-08-19T06:24:15;23.63;;;21.43;;
146;SDS011;45999;48.808;9.182;2022-08-19T06:26:45;23.63;;;21.27;;
146;SDS011;45999;48.808;9.182;2022-08-19T06:29:14;23.53;;;21.37;;
146;SDS011;45999;48.808;9.182;2022-08-19T06:31:43;24.87;;;22.37;;
146;SDS011;45999;48.808;9.182;2022-08-19T06:34:12;24.57;;;22.17;;
146;SDS011;45999;48.808;9.182;2022-08-19T06:36:40;23.87;;;21.47;;
146;SDS011;45999;48.808;9.182;2022-08-19T06:39:13;26.27;;;23.70;;
146;SDS011;45999;48.808;9.182;2022-08-19T06:41:43;26.27;;;23.67;;
146;SDS011;45999;48.808;9.182;2022-08-19T06:44:13;27.47;;;24.17;;
146;SDS011;45999;48.808;9.182;2022-08-19T06:46:40;26.07;;;23.60;;
146;SDS011;45999;48.808;9.182;2022-08-19T06:49:07;26.50;;;24.00;;
146;SDS011;45999;48.808;9.182;2022-08-19T06:51:36;27.90;;;25.20;;
146;SDS011;45999;48.808;9.182;2022-08-19T06:54:04;27.93;;;25.33;;
146;SDS011;45999;48.808;9.182;2022-08-19T06:56:31;27.13;;;24.60;;
146;SDS011;45999;48.808;9.182;2022-08-19T06:59:06;27.10;;;24.47;;
146;SDS011;45999;48.808;9.182;2022-08-19T07:01:39;26.23;;;23.73;;
146;SDS011;45999;48.808;9.182;2022-08-19T07:04:09;27.70;;;25.00;;
146;SDS011;45999;48.808;9.182;2022-08-19T07:06:36;26.67;;;24.17;;
146;SDS011;45999;48.808;9.182;2022-08-19T07:09:06;26.67;;;24.07;;
146;SDS011;45999;48.808;9.182;2022-08-19T07:11:33;24.97;;;22.77;;
146;SDS011;45999;48.808;9.182;2022-08-19T07:14:00;25.67;;;23.37;;
146;SDS011;45999;48.808;9.182;2022-08-19T07:16:27;26.00;;;23.53;;
146;SDS011;45999;48.808;9.182;2022-08-19T07:18:55;25.40;;;23.07;;
146;SDS011;45999;48.808;9.182;2022-08-19T07:21:24;25.27;;;22.57;;
146;SDS011;45999;48.808;9.182;2022-08-19T07:23:53;25.00;;;22.77;;
146;SDS011;45999;48.808;9.182;2022-08-19T07:26:23;24.07;;;21.87;;
146;SDS011;45999;48.808;9.182;2022-08-19T07:28:51;25.67;;;23.23;;
146;SDS011;45999;48.808;9.182;2022-08-19T07:31:19;23.97;;;21.87;;
146;SDS011;45999;48.808;9.182;2022-08-19T07:33:47;24.27;;;21.97;;
146;SDS011;45999;48.808;9.182;2022-08-19T07:36:16;25.37;;;22.73;;
146;SDS011;45999;48.808;9.182;2022-08-19T07:38:47;24.33;;;21.83;;
146;SDS011;45999;48.808;9.182;2022-08-19T07:41:20;22.90;;;20.53;;
146;SDS011;45999;48.808;9.182;2022-08-19T07:43:48;22.40;;;20.10;;
146;SDS011;45999;48.808;9.182;2022-08-19T07:46:17;23.57;;;21.20;;
146;SDS011;45999;48.808;9.182;2022-08-19T07:48:45;22.07;;;19.97;;
146;SDS011;45999;48.808;9.182;2022-08-19T07:51:12;22.10;;;19.90;;
146;SDS011;45999;48.808;9.182;2022-08-19T07:53:41;22.83;;;20.53;;
146;SDS011;45999;48.808;9.182;2022-08-19T07:56:10;23.00;;;20.60;;
146;SDS011;45999;48.808;9.182;2022-08-19T07:58:38;21.77;;;19.87;;
146;SDS011;45999;48.808;9.182;2022-08-19T08:01:07;22.20;;;20.03;;
146;SDS011;45999;48.808;9.182;2022-08-19T08:03:36;21.60;;;19.23;;
146;SDS011;45999;48.808;9.182;2022-08-19T08:06:21;21.87;;;19.57;;
146;SDS011;45999;48.808;9.182;2022-08-19T08:09:06;21.07;;;18.97;;
146;SDS011;45999;48.808;9.182;2022-08-19T08:11:50;21.90;;;19.80;;
146;SDS011;45999;48.808;9.182;2022-08-19T08:14:29;20.70;;;18.70;;
146;SDS011;45999;48.808;9.182;2022-08-19T08:16:58;20.47;;;18.67;;
146;SDS011;45999;48.808;9.182;2022-08-19T08:19:25;21.27;;;19.03;;
146;SDS011;45999;48.808;9.182;2022-08-19T08:21:54;20.47;;;18.47;;
146;SDS011;45999;48.808;9.182;2022-08-19T08:24:23;20.93;;;18.90;;
146;SDS011;45999;48.808;9.182;2022-08-19T08:26:50;21.67;;;19.57;;
146;SDS011;45999;48.808;9.182;2022-08-19T08:29:16;20.90;;;18.73;;
146;SDS011;45999;48.808;9.182;2022-08-19T08:31:44;21.33;;;19.33;;
146;SDS011;45999;48.808;9.182;2022-08-19T08:34:13;19.43;;;17.50;;
146;SDS011;45999;48.808;9.182;2022-08-19T08:36:42;20.93;;;18.93;;
146;SDS011;45999;48.808;9.182;2022-08-19T08:39:15;20.13;;;18.33;;
146;SDS011;45999;48.808;9.182;2022-08-19T08:41:54;22.83;;;20.63;;
146;SDS011;45999;48.808;9.182;2022-08-19T08:44:38;23.87;;;21.77;;
146;SDS011;45999;48.808;9.182;2022-08-19T08:47:15;24.87;;;22.13;;
146;SDS011;45999;48.808;9.182;2022-08-19T08:49:52;24.70;;;22.40;;
146;SDS011;45999;48.808;9.182;2022-08-19T08:52:25;25.23;;;22.50;;
146;SDS011;45999;48.808;9.182;2022-08-19T08:54:55;26.03;;;22.90;;
146;SDS011;45999;48.808;9.182;2022-08-19T08:59:57;23.07;;;20.67;;
146;SDS011;45999;48.808;9.182;2022-08-19T09:02:29;22.77;;;20.73;;
146;SDS011;45999;48.808;9.182;2022-08-19T09:04:56;25.00;;;22.60;;
146;SDS011;45999;48.808;9.182;2022-08-19T09:10:02;23.60;;;21.50;;
146;SDS011;45999;48.808;9.182;2022-08-19T09:12:39;23.17;;;21.07;;
146;SDS011;45999;48.808;9.182;2022-08-19T09:15:30;23.87;;;21.00;;
146;SDS011;45999;48.808;9.182;2022-08-19T09:18:03;21.70;;;19.83;;
146;SDS011;45999;48.808;9.182;2022-08-19T09:20:31;20.53;;;18.53;;
146;SDS011;45999;48.808;9.182;2022-08-19T09:22:58;21.87;;;19.67;;
146;SDS011;45999;48.808;9.182;2022-08-19T09:25:24;21.63;;;19.53;;
146;SDS011;45999;48.808;9.182;2022-08-19T09:27:51;20.90;;;18.80;;
146;SDS011;45999;48.808;9.182;2022-08-19T09:30:21;20.57;;;18.67;;
146;SDS011;45999;48.808;9.182;2022-08-19T09:32:52;19.93;;;17.87;;
146;SDS011;45999;48.808;9.182;2022-08-19T09:35:21;19.47;;;17.53;;
146;SDS011;45999;48.808;9.182;2022-08-19T09:37:49;19.63;;;17.57;;
146;SDS011;45999;48.808;9.182;2022-08-19T09:40:16;19.03;;;16.77;;
146;SDS011;45999;48.808;9.182;2022-08-19T09:42:44;19.83;;;16.70;;
146;SDS011;45999;48.808;9.182;2022-08-19T09:45:13;17.63;;;15.87;;
146;SDS011;45999;48.808;9.182;2022-08-19T09:47:40;18.30;;;15.90;;
146;SDS011;45999;48.808;9.182;2022-08-19T09:50:07;17.27;;;15.60;;
146;SDS011;45999;48.808;9.182;2022-08-19T09:52:36;17.47;;;15.67;;
146;SDS011;45999;48.808;9.182;2022-08-19T09:55:04;15.80;;;14.10;;
146;SDS011;45999;48.808;9.182;2022-08-19T09:57:31;16.27;;;14.80;;
146;SDS011;45999;48.808;9.182;2022-08-19T09:59:57;16.20;;;14.67;;
146;SDS011;45999;48.808;9.182;2022-08-19T10:02:24;17.60;;;15.87;;
146;SDS011;45999;48.808;9.182;2022-08-19T10:04:51;17.20;;;14.93;;
146;SDS011;45999;48.808;9.182;2022-08-19T10:07:35;15.90;;;14.40;;
146;SDS011;45999;48.808;9.182;2022-08-19T10:10:03;15.60;;;13.87;;
146;SDS011;45999;48.808;9.182;2022-08-19T10:12:31;16.50;;;14.77;;
146;SDS011;45999;48.808;9.182;2022-08-19T10:14:59;15.43;;;14.03;;
146;SDS011;45999;48.808;9.182;2022-08-19T10:17:26;15.37;;;13.93;;
146;SDS011;45999;48.808;9.182;2022-08-19T10:19:53;14.83;;;13.43;;
146;SDS011;45999;48.808;9.182;2022-08-19T10:22:20;14.30;;;12.80;;
146;SDS011;45999;48.808;9.182;2022-08-19T10:24:46;14.23;;;12.70;;
146;SDS011;45999;48.808;9.182;2022-08-19T10:27:14;14.87;;;13.37;;
146;SDS011;45999;48.808;9.182;2022-08-19T10:29:41;13.43;;;12.23;;
146;SDS011;45999;48.808;9.182;2022-08-19T10:32:07;14.67;;;13.30;;
146;SDS011;45999;48.808;9.182;2022-08-19T10:34:36;14.23;;;12.63;;
146;SDS011;45999;48.808;9.182;2022-08-19T10:37:04;12.27;;;11.17;;
146;SDS011;45999;48.808;9.182;2022-08-19T10:39:32;14.53;;;12.10;;
146;SDS011;45999;48.808;9.182;2022-08-19T10:42:03;14.90;;;12.27;;
146;SDS011;45999;48.808;9.182;2022-08-19T10:44:35;12.73;;;11.53;;
146;SDS011;45999;48.808;9.182;2022-08-19T10:47:02;13.50;;;11.57;;
146;SDS011;45999;48.808;9.182;2022-08-19T10:49:29;12.20;;;11.00;;
146;SDS011;45999;48.808;9.182;2022-08-19T10:51:57;11.63;;;10.63;;
146;SDS011;45999;48.808;9.182;2022-08-19T10:54:41;13.30;;;10.63;;
146;SDS011;45999;48.808;9.182;2022-08-19T10:57:25;11.23;;;10.00;;
146;SDS011;45999;48.808;9.182;2022-08-19T10:59:55;11.33;;;10.17;;
146;SDS011;45999;48.808;9.182;2022-08-19T11:02:22;11.13;;;10.13;;
146;SDS011;45999;48.808;9.182;2022-08-19T11:04:48;10.90;;;9.77;;
146;SDS011;45999;48.808;9.182;2022-08-19T11:07:16;11.03;;;9.93;;
146;SDS011;45999;48.808;9.182;2022-08-19T11:09:43;10.10;;;9.20;;
146;SDS011;45999;48.808;9.182;2022-08-19T11:12:11;10.40;;;9.10;;
146;SDS011;45999;48.808;9.182;2022-08-19T11:14:40;10.33;;;9.33;;
146;SDS011;45999;48.808;9.182;2022-08-19T11:17:06;9.17;;;8.30;;
146;SDS011;45999;48.808;9.182;2022-08-19T11:19:33;9.83;;;8.93;;
146;SDS011;45999;48.808;9.182;2022-08-19T11:22:00;9.80;;;8.80;;
146;SDS011;45999;48.808;9.182;2022-08-19T11:24:28;9.47;;;8.57;;
146;SDS011;45999;48.808;9.182;2022-08-19T11:27:02;8.97;;;8.10;;
146;SDS011;45999;48.808;9.182;2022-08-19T11:29:32;9.27;;;8.37;;
146;SDS011;45999;48.808;9.182;2022-08-19T11:31:59;10.23;;;8.70;;
146;SDS011;45999;48.808;9.182;2022-08-19T11:34:26;8.20;;;7.47;;
146;SDS011;45999;48.808;9.182;2022-08-19T11:36:54;8.67;;;7.87;;
146;SDS011;45999;48.808;9.182;2022-08-19T11:39:23;8.60;;;7.80;;
146;SDS011;45999;48.808;9.182;2022-08-19T11:41:52;10.13;;;8.63;;
146;SDS011;45999;48.808;9.182;2022-08-19T11:44:18;9.10;;;7.20;;
146;SDS011;45999;48.808;9.182;2022-08-19T11:46:45;9.47;;;8.33;;
146;SDS011;45999;48.808;9.182;2022-08-19T11:49:13;9.30;;;8.00;;
146;SDS011;45999;48.808;9.182;2022-08-19T11:51:41;8.97;;;8.23;;
146;SDS011;45999;48.808;9.182;2022-08-19T11:54:08;8.90;;;8.00;;
146;SDS011;45999;48.808;9.182;2022-08-19T11:56:37;8.30;;;7.50;;
146;SDS011;45999;48.808;9.182;2022-08-19T11:59:04;9.02;;;8.20;;
146;SDS011;45999;48.808;9.182;2022-08-19T12:01:31;8.80;;;8.10;;
146;SDS011;45999;48.808;9.182;2022-08-19T12:03:57;9.20;;;8.40;;
146;SDS011;45999;48.808;9.182;2022-08-19T12:06:26;9.03;;;8.13;;
146;SDS011;45999;48.808;9.182;2022-08-19T12:08:57;9.40;;;8.15;;
146;SDS011;45999;48.808;9.182;2022-08-19T12:11:24;9.07;;;8.00;;
146;SDS011;45999;48.808;9.182;2022-08-19T12:13:51;9.15;;;8.38;;
146;SDS011;45999;48.808;9.182;2022-08-19T12:16:20;9.30;;;8.40;;
146;SDS011;45999;48.808;9.182;2022-08-19T12:18:48;9.95;;;7.85;;
146;SDS011;45999;48.808;9.182;2022-08-19T12:21:17;9.52;;;8.60;;
146;SDS011;45999;48.808;9.182;2022-08-19T12:23:50;8.73;;;7.82;;
146;SDS011;45999;48.808;9.182;2022-08-19T12:26:17;9.48;;;8.27;;
146;SDS011;45999;48.808;9.182;2022-08-19T12:28:44;8.40;;;7.70;;
146;SDS011;45999;48.808;9.182;2022-08-19T12:31:10;9.55;;;8.70;;
146;SDS011;45999;48.808;9.182;2022-08-19T12:33:37;9.60;;;8.80;;
146;SDS011;45999;48.808;9.182;2022-08-19T12:36:06;13.32;;;11.40;;
146;SDS011;45999;48.808;9.182;2022-08-19T12:38:35;17.85;;;15.55;;
146;SDS011;45999;48.808;9.182;2022-08-19T12:41:02;17.80;;;16.10;;
146;SDS011;45999;48.808;9.182;2022-08-19T12:43:35;18.92;;;17.08;;
146;SDS011;45999;48.808;9.182;2022-08-19T12:46:02;19.25;;;17.48;;
146;SDS011;45999;48.808;9.182;2022-08-19T12:48:30;18.60;;;16.75;;
146;SDS011;45999;48.808;9.182;2022-08-19T12:50:57;18.27;;;16.52;;
146;SDS011;45999;48.808;9.182;2022-08-19T12:53:23;18.33;;;16.63;;
146;SDS011;45999;48.808;9.182;2022-08-19T12:55:57;17.42;;;15.68;;
146;SDS011;45999;48.808;9.182;2022-08-19T12:58:24;17.02;;;15.43;;
146;SDS011;45999;48.808;9.182;2022-08-19T13:00:51;17.35;;;15.50;;
146;SDS011;45999;48.808;9.182;2022-08-19T13:03:18;18.20;;;16.10;;
146;SDS011;45999;48.808;9.182;2022-08-19T13:05:44;16.08;;;14.38;;
146;SDS011;45999;48.808;9.182;2022-08-19T13:08:11;16.88;;;15.10;;
146;SDS011;45999;48.808;9.182;2022-08-19T13:10:37;18.52;;;15.35;;
146;SDS011;45999;48.808;9.182;2022-08-19T13:13:04;17.02;;;15.27;;
146;SDS011;45999;48.808;9.182;2022-08-19T13:15:38;19.63;;;17.60;;
146;SDS011;45999;48.808;9.182;2022-08-19T13:18:06;21.88;;;19.15;;
146;SDS011;45999;48.808;9.182;2022-08-19T13:20:34;22.35;;;20.05;;
146;SDS011;45999;48.808;9.182;2022-08-19T13:23:01;23.38;;;21.00;;
146;SDS011;45999;48.808;9.182;2022-08-19T13:25:28;22.53;;;20.27;;
146;SDS011;45999;48.808;9.182;2022-08-19T13:27:54;23.43;;;21.20;;
146;SDS011;45999;48.808;9.182;2022-08-19T13:30:21;23.83;;;21.63;;
146;SDS011;45999;48.808;9.182;2022-08-19T13:33:05;24.13;;;21.87;;
146;SDS011;45999;48.808;9.182;2022-08-19T13:38:11;26.73;;;24.00;;
146;SDS011;45999;48.808;9.182;2022-08-19T13:40:39;27.67;;;25.10;;
146;SDS011;45999;48.808;9.182;2022-08-19T13:43:07;27.60;;;25.07;;
146;SDS011;45999;48.808;9.182;2022-08-19T13:45:35;28.07;;;25.47;;
146;SDS011;45999;48.808;9.182;2022-08-19T13:48:05;30.83;;;27.63;;
146;SDS011;45999;48.808;9.182;2022-08-19T13:50:34;32.13;;;28.80;;
146;SDS011;45999;48.808;9.182;2022-08-19T13:53:10;31.27;;;28.30;;
146;SDS011;45999;48.808;9.182;2022-08-19T13:55:38;33.80;;;30.73;;
146;SDS011;45999;48.808;9.182;2022-08-19T13:58:05;33.17;;;30.13;;
146;SDS011;45999;48.808;9.182;2022-08-19T14:00:34;33.93;;;30.63;;
146;SDS011;45999;48.808;9.182;2022-08-19T14:03:07;33.80;;;30.70;;
146;SDS011;45999;48.808;9.182;2022-08-19T14:05:34;33.63;;;30.33;;
146;SDS011;45999;48.808;9.182;2022-08-19T14:08:01;35.67;;;32.20;;
146;SDS011;45999;48.808;9.182;2022-08-19T14:10:27;34.33;;;30.77;;
146;SDS011;45999;48.808;9.182;2022-08-19T14:12:56;32.60;;;29.43;;
146;SDS011;45999;48.808;9.182;2022-08-19T14:15:28;34.70;;;31.27;;
146;SDS011;45999;48.808;9.182;2022-08-19T14:17:55;34.93;;;31.50;;
146;SDS011;45999;48.808;9.182;2022-08-19T14:20:22;33.77;;;30.33;;
146;SDS011;45999;48.808;9.182;2022-08-19T14:22:48;33.43;;;30.33;;
146;SDS011;45999;48.808;9.182;2022-08-19T14:25:16;33.63;;;30.33;;
146;SDS011;45999;48.808;9.182;2022-08-19T14:27:44;31.57;;;28.60;;
146;SDS011;45999;48.808;9.182;2022-08-19T14:30:12;31.27;;;28.27;;
146;SDS011;45999;48.808;9.182;2022-08-19T14:32:41;29.70;;;26.87;;
146;SDS011;45999;48.808;9.182;2022-08-19T14:35:09;31.00;;;27.77;;
146;SDS011;45999;48.808;9.182;2022-08-19T14:37:37;28.63;;;25.93;;
146;SDS011;45999;48.808;9.182;2022-08-19T14:40:04;28.83;;;26.10;;
146;SDS011;45999;48.808;9.182;2022-08-19T14:42:31;26.07;;;23.80;;
146;SDS011;45999;48.808;9.182;2022-08-19T14:44:58;26.17;;;23.83;;
146;SDS011;45999;48.808;9.182;2022-08-19T14:47:25;24.27;;;22.27;;
146;SDS011;45999;48.808;9.182;2022-08-19T14:49:52;23.53;;;21.37;;
146;SDS011;45999;48.808;9.182;2022-08-19T14:52:19;23.87;;;21.80;;
146;SDS011;45999;48.808;9.182;2022-08-19T14:54:46;24.43;;;22.30;;
146;SDS011;45999;48.808;9.182;2022-08-19T14:57:13;23.60;;;21.50;;
146;SDS011;45999;48.808;9.182;2022-08-19T14:59:41;23.57;;;21.47;;
146;SDS011;45999;48.808;9.182;2022-08-19T15:02:08;22.77;;;20.57;;
146;SDS011;45999;48.808;9.182;2022-08-19T15:04:35;21.07;;;19.27;;
146;SDS011;45999;48.808;9.182;2022-08-19T15:07:02;20.33;;;18.43;;
146;SDS011;45999;48.808;9.182;2022-08-19T15:09:32;20.97;;;18.90;;